sensor_id;sensor_type;location;lat;lon;timestamp;P1;durP1;ratioP1;P2;durP2;ratioP2
67819;SDS011;54618;52.018;5.576;2022-12-07T00:02:17;2.28;;;1.48;;
67819;SDS011;54618;52.018;5.576;2022-12-07T00:04:42;2.88;;;1.48;;
67819;SDS011;54618;52.018;5.576;2022-12-07T00:07:08;2.42;;;1.38;;
67819;SDS011;54618;52.018;5.576;2022-12-07T00:09:33;3.30;;;1.50;;
67819;SDS011;54618;52.018;5.576;2022-12-07T00:11:59;2.60;;;1.60;;
67819;SDS011;54618;52.018;5.576;2022-12-07T00:14:24;2.92;;;1.35;;
67819;SDS011;54618;52.018;5.576;2022-12-07T00:16:50;2.92;;;1.70;;
67819;SDS011;54618;52.018;5.576;2022-12-07T00:19:16;2.42;;;1.33;;
67819;SDS011;54618;52.018;5.576;2022-12-07T00:21:42;3.47;;;1.23;;
67819;SDS011;54618;52.018;5.576;2022-12-07T00:24:09;3.15;;;1.30;;
67819;SDS011;54618;52.018;5.576;2022-12-07T00:26:36;2.22;;;1.30;;
67819;SDS011;54618;52.018;5.576;2022-12-07T00:29:15;2.38;;;1.27;;
67819;SDS011;54618;52.018;5.576;2022-12-07T00:31:42;2.53;;;1.20;;
67819;SDS011;54618;52.018;5.576;2022-12-07T00:34:12;2.50;;;1.20;;
67819;SDS011;54618;52.018;5.576;2022-12-07T00:36:39;4.00;;;1.50;;
67819;SDS011;54618;52.018;5.576;2022-12-07T00:39:05;3.03;;;1.40;;
67819;SDS011;54618;52.018;5.576;2022-12-07T00:41:31;2.35;;;1.20;;
67819;SDS011;54618;52.018;5.576;2022-12-07T00:43:57;2.60;;;1.33;;
67819;SDS011;54618;52.018;5.576;2022-12-07T00:46:23;3.30;;;1.40;;
67819;SDS011;54618;52.018;5.576;2022-12-07T00:48:49;2.63;;;1.30;;
67819;SDS011;54618;52.018;5.576;2022-12-07T00:51:16;2.10;;;1.30;;
67819;SDS011;54618;52.018;5.576;2022-12-07T00:53:43;3.05;;;1.42;;
67819;SDS011;54618;52.018;5.576;2022-12-07T00:56:11;2.05;;;1.20;;
67819;SDS011;54618;52.018;5.576;2022-12-07T00:58:38;2.47;;;1.27;;
67819;SDS011;54618;52.018;5.576;2022-12-07T01:01:04;2.55;;;1.27;;
67819;SDS011;54618;52.018;5.576;2022-12-07T01:03:31;2.63;;;1.33;;
67819;SDS011;54618;52.018;5.576;2022-12-07T01:05:57;2.40;;;1.30;;
67819;SDS011;54618;52.018;5.576;2022-12-07T01:08:23;2.70;;;1.42;;
67819;SDS011;54618;52.018;5.576;2022-12-07T01:10:57;3.00;;;1.10;;
67819;SDS011;54618;52.018;5.576;2022-12-07T01:13:28;2.47;;;1.30;;
67819;SDS011;54618;52.018;5.576;2022-12-07T01:15:56;2.35;;;1.20;;
67819;SDS011;54618;52.018;5.576;2022-12-07T01:18:24;2.75;;;1.30;;
67819;SDS011;54618;52.018;5.576;2022-12-07T01:20:58;2.03;;;1.30;;
67819;SDS011;54618;52.018;5.576;2022-12-07T01:23:32;2.83;;;1.30;;
67819;SDS011;54618;52.018;5.576;2022-12-07T01:26:00;2.88;;;1.27;;
67819;SDS011;54618;52.018;5.576;2022-12-07T01:28:28;2.45;;;1.20;;
67819;SDS011;54618;52.018;5.576;2022-12-07T01:31:01;2.83;;;1.40;;
67819;SDS011;54618;52.018;5.576;2022-12-07T01:33:29;2.20;;;1.20;;
67819;SDS011;54618;52.018;5.576;2022-12-07T01:36:01;2.95;;;1.20;;
67819;SDS011;54618;52.018;5.576;2022-12-07T01:38:31;2.10;;;1.08;;
67819;SDS011;54618;52.018;5.576;2022-12-07T01:40:57;1.83;;;0.98;;
67819;SDS011;54618;52.018;5.576;2022-12-07T01:43:24;2.58;;;1.23;;
67819;SDS011;54618;52.018;5.576;2022-12-07T01:45:52;2.65;;;1.10;;
67819;SDS011;54618;52.018;5.576;2022-12-07T01:48:20;1.73;;;0.90;;
67819;SDS011;54618;52.018;5.576;2022-12-07T01:50:50;2.17;;;1.10;;
67819;SDS011;54618;52.018;5.576;2022-12-07T01:53:18;2.53;;;1.20;;
67819;SDS011;54618;52.018;5.576;2022-12-07T01:55:45;3.88;;;1.20;;
67819;SDS011;54618;52.018;5.576;2022-12-07T01:58:12;1.90;;;1.00;;
67819;SDS011;54618;52.018;5.576;2022-12-07T02:00:39;2.08;;;1.20;;
67819;SDS011;54618;52.018;5.576;2022-12-07T02:03:08;4.95;;;1.30;;
67819;SDS011;54618;52.018;5.576;2022-12-07T02:05:46;3.35;;;1.42;;
67819;SDS011;54618;52.018;5.576;2022-12-07T02:08:14;2.60;;;1.13;;
67819;SDS011;54618;52.018;5.576;2022-12-07T02:10:40;2.15;;;1.23;;
67819;SDS011;54618;52.018;5.576;2022-12-07T02:13:07;2.70;;;1.15;;
67819;SDS011;54618;52.018;5.576;2022-12-07T02:15:45;3.75;;;1.00;;
67819;SDS011;54618;52.018;5.576;2022-12-07T02:23:41;2.90;;;1.10;;
67819;SDS011;54618;52.018;5.576;2022-12-07T02:31:32;2.40;;;1.08;;
67819;SDS011;54618;52.018;5.576;2022-12-07T02:34:05;2.00;;;1.08;;
67819;SDS011;54618;52.018;5.576;2022-12-07T02:36:46;3.75;;;1.05;;
67819;SDS011;54618;52.018;5.576;2022-12-07T02:39:41;2.30;;;1.10;;
67819;SDS011;54618;52.018;5.576;2022-12-07T02:42:19;1.75;;;0.85;;
67819;SDS011;54618;52.018;5.576;2022-12-07T02:44:50;2.85;;;0.98;;
67819;SDS011;54618;52.018;5.576;2022-12-07T02:47:17;3.10;;;1.00;;
67819;SDS011;54618;52.018;5.576;2022-12-07T02:49:44;2.30;;;1.10;;
67819;SDS011;54618;52.018;5.576;2022-12-07T02:52:11;3.50;;;1.00;;
67819;SDS011;54618;52.018;5.576;2022-12-07T02:54:36;3.38;;;1.10;;
67819;SDS011;54618;52.018;5.576;2022-12-07T02:57:06;2.35;;;0.93;;
67819;SDS011;54618;52.018;5.576;2022-12-07T03:07:47;1.83;;;0.88;;
67819;SDS011;54618;52.018;5.576;2022-12-07T03:15:53;3.10;;;0.90;;
67819;SDS011;54618;52.018;5.576;2022-12-07T03:18:45;2.95;;;1.02;;
67819;SDS011;54618;52.018;5.576;2022-12-07T03:21:23;2.72;;;1.05;;
67819;SDS011;54618;52.018;5.576;2022-12-07T03:23:53;2.55;;;1.00;;
67819;SDS011;54618;52.018;5.576;2022-12-07T03:26:21;3.05;;;1.00;;
67819;SDS011;54618;52.018;5.576;2022-12-07T03:28:51;2.25;;;0.82;;
67819;SDS011;54618;52.018;5.576;2022-12-07T03:33:57;2.80;;;1.05;;
67819;SDS011;54618;52.018;5.576;2022-12-07T03:36:39;2.85;;;1.05;;
67819;SDS011;54618;52.018;5.576;2022-12-07T03:39:15;1.88;;;0.70;;
67819;SDS011;54618;52.018;5.576;2022-12-07T03:41:55;2.50;;;0.88;;
67819;SDS011;54618;52.018;5.576;2022-12-07T03:44:22;3.03;;;0.90;;
67819;SDS011;54618;52.018;5.576;2022-12-07T03:52:19;2.65;;;0.80;;
67819;SDS011;54618;52.018;5.576;2022-12-07T03:55:08;1.88;;;0.90;;
67819;SDS011;54618;52.018;5.576;2022-12-07T03:57:50;3.63;;;0.93;;
67819;SDS011;54618;52.018;5.576;2022-12-07T04:00:19;2.15;;;0.80;;
67819;SDS011;54618;52.018;5.576;2022-12-07T04:02:44;2.67;;;0.85;;
67819;SDS011;54618;52.018;5.576;2022-12-07T04:05:10;2.53;;;1.17;;
67819;SDS011;54618;52.018;5.576;2022-12-07T04:07:36;3.35;;;0.82;;
67819;SDS011;54618;52.018;5.576;2022-12-07T04:10:02;1.70;;;0.70;;
67819;SDS011;54618;52.018;5.576;2022-12-07T04:12:28;1.75;;;0.80;;
67819;SDS011;54618;52.018;5.576;2022-12-07T04:14:53;2.08;;;0.80;;
67819;SDS011;54618;52.018;5.576;2022-12-07T04:17:19;2.50;;;0.70;;
67819;SDS011;54618;52.018;5.576;2022-12-07T04:19:44;2.08;;;0.70;;
67819;SDS011;54618;52.018;5.576;2022-12-07T04:22:10;2.17;;;0.80;;
67819;SDS011;54618;52.018;5.576;2022-12-07T04:24:35;1.88;;;0.80;;
67819;SDS011;54618;52.018;5.576;2022-12-07T04:27:01;1.52;;;0.77;;
67819;SDS011;54618;52.018;5.576;2022-12-07T04:29:27;2.25;;;0.70;;
67819;SDS011;54618;52.018;5.576;2022-12-07T04:31:52;2.67;;;0.90;;
67819;SDS011;54618;52.018;5.576;2022-12-07T04:34:18;2.45;;;0.80;;
67819;SDS011;54618;52.018;5.576;2022-12-07T04:36:45;2.70;;;0.85;;
67819;SDS011;54618;52.018;5.576;2022-12-07T04:39:16;2.60;;;0.80;;
67819;SDS011;54618;52.018;5.576;2022-12-07T04:41:47;1.10;;;0.60;;
67819;SDS011;54618;52.018;5.576;2022-12-07T04:44:13;2.72;;;0.60;;
67819;SDS011;54618;52.018;5.576;2022-12-07T04:46:39;2.65;;;0.80;;
67819;SDS011;54618;52.018;5.576;2022-12-07T04:49:05;2.67;;;0.85;;
67819;SDS011;54618;52.018;5.576;2022-12-07T04:51:31;1.30;;;0.65;;
67819;SDS011;54618;52.018;5.576;2022-12-07T04:53:56;1.90;;;0.70;;
67819;SDS011;54618;52.018;5.576;2022-12-07T04:56:22;1.98;;;0.70;;
67819;SDS011;54618;52.018;5.576;2022-12-07T04:58:49;2.00;;;0.60;;
67819;SDS011;54618;52.018;5.576;2022-12-07T05:01:15;1.73;;;0.68;;
67819;SDS011;54618;52.018;5.576;2022-12-07T05:03:41;3.58;;;0.80;;
67819;SDS011;54618;52.018;5.576;2022-12-07T05:06:07;2.55;;;0.90;;
67819;SDS011;54618;52.018;5.576;2022-12-07T05:08:34;2.53;;;0.55;;
67819;SDS011;54618;52.018;5.576;2022-12-07T05:11:00;1.77;;;0.70;;
67819;SDS011;54618;52.018;5.576;2022-12-07T05:13:27;2.65;;;0.73;;
67819;SDS011;54618;52.018;5.576;2022-12-07T05:15:53;1.65;;;0.65;;
67819;SDS011;54618;52.018;5.576;2022-12-07T05:18:18;2.08;;;0.60;;
67819;SDS011;54618;52.018;5.576;2022-12-07T05:20:44;2.40;;;0.93;;
67819;SDS011;54618;52.018;5.576;2022-12-07T05:23:10;1.38;;;0.57;;
67819;SDS011;54618;52.018;5.576;2022-12-07T05:25:35;1.83;;;0.70;;
67819;SDS011;54618;52.018;5.576;2022-12-07T05:28:01;2.05;;;0.70;;
67819;SDS011;54618;52.018;5.576;2022-12-07T05:30:27;1.98;;;0.80;;
67819;SDS011;54618;52.018;5.576;2022-12-07T05:32:53;2.50;;;0.80;;
67819;SDS011;54618;52.018;5.576;2022-12-07T05:35:18;2.45;;;0.70;;
67819;SDS011;54618;52.018;5.576;2022-12-07T05:37:44;2.40;;;0.70;;
67819;SDS011;54618;52.018;5.576;2022-12-07T05:40:10;1.85;;;0.70;;
67819;SDS011;54618;52.018;5.576;2022-12-07T05:42:37;1.80;;;0.60;;
67819;SDS011;54618;52.018;5.576;2022-12-07T05:45:03;2.65;;;0.70;;
67819;SDS011;54618;52.018;5.576;2022-12-07T05:47:29;1.95;;;0.70;;
67819;SDS011;54618;52.018;5.576;2022-12-07T05:49:54;2.00;;;0.80;;
67819;SDS011;54618;52.018;5.576;2022-12-07T05:52:20;3.00;;;0.70;;
67819;SDS011;54618;52.018;5.576;2022-12-07T05:54:46;2.17;;;0.60;;
67819;SDS011;54618;52.018;5.576;2022-12-07T05:57:11;1.35;;;0.50;;
67819;SDS011;54618;52.018;5.576;2022-12-07T05:59:37;2.17;;;0.65;;
67819;SDS011;54618;52.018;5.576;2022-12-07T06:02:04;1.30;;;0.60;;
67819;SDS011;54618;52.018;5.576;2022-12-07T06:04:31;1.48;;;0.47;;
67819;SDS011;54618;52.018;5.576;2022-12-07T06:06:59;2.90;;;0.77;;
67819;SDS011;54618;52.018;5.576;2022-12-07T06:09:25;2.10;;;0.57;;
67819;SDS011;54618;52.018;5.576;2022-12-07T06:11:52;2.20;;;0.60;;
67819;SDS011;54618;52.018;5.576;2022-12-07T06:14:37;1.42;;;0.60;;
67819;SDS011;54618;52.018;5.576;2022-12-07T06:17:03;2.03;;;0.70;;
67819;SDS011;54618;52.018;5.576;2022-12-07T06:19:29;1.92;;;0.57;;
67819;SDS011;54618;52.018;5.576;2022-12-07T06:21:55;1.90;;;0.60;;
67819;SDS011;54618;52.018;5.576;2022-12-07T06:24:21;2.60;;;0.70;;
67819;SDS011;54618;52.018;5.576;2022-12-07T06:26:46;1.85;;;0.68;;
67819;SDS011;54618;52.018;5.576;2022-12-07T06:29:12;2.33;;;0.60;;
67819;SDS011;54618;52.018;5.576;2022-12-07T06:31:39;3.63;;;0.75;;
67819;SDS011;54618;52.018;5.576;2022-12-07T06:34:06;1.20;;;0.70;;
67819;SDS011;54618;52.018;5.576;2022-12-07T06:36:34;2.15;;;0.73;;
67819;SDS011;54618;52.018;5.576;2022-12-07T06:38:59;1.73;;;0.93;;
67819;SDS011;54618;52.018;5.576;2022-12-07T06:41:25;1.83;;;0.73;;
67819;SDS011;54618;52.018;5.576;2022-12-07T06:43:51;1.83;;;0.63;;
67819;SDS011;54618;52.018;5.576;2022-12-07T06:46:17;1.02;;;0.52;;
67819;SDS011;54618;52.018;5.576;2022-12-07T06:48:43;3.15;;;0.80;;
67819;SDS011;54618;52.018;5.576;2022-12-07T06:51:09;0.98;;;0.60;;
67819;SDS011;54618;52.018;5.576;2022-12-07T06:53:35;1.90;;;0.80;;
67819;SDS011;54618;52.018;5.576;2022-12-07T06:56:01;1.67;;;0.70;;
67819;SDS011;54618;52.018;5.576;2022-12-07T06:58:26;1.98;;;0.60;;
67819;SDS011;54618;52.018;5.576;2022-12-07T07:00:52;1.98;;;0.80;;
67819;SDS011;54618;52.018;5.576;2022-12-07T07:03:18;1.98;;;0.75;;
67819;SDS011;54618;52.018;5.576;2022-12-07T07:05:43;1.63;;;0.70;;
67819;SDS011;54618;52.018;5.576;2022-12-07T07:08:10;2.28;;;0.70;;
67819;SDS011;54618;52.018;5.576;2022-12-07T07:10:36;1.65;;;0.70;;
67819;SDS011;54618;52.018;5.576;2022-12-07T07:13:02;2.40;;;0.73;;
67819;SDS011;54618;52.018;5.576;2022-12-07T07:15:28;3.22;;;0.93;;
67819;SDS011;54618;52.018;5.576;2022-12-07T07:17:54;2.58;;;0.73;;
67819;SDS011;54618;52.018;5.576;2022-12-07T07:20:20;2.25;;;0.80;;
67819;SDS011;54618;52.018;5.576;2022-12-07T07:22:45;1.98;;;1.00;;
67819;SDS011;54618;52.018;5.576;2022-12-07T07:25:11;2.72;;;0.70;;
67819;SDS011;54618;52.018;5.576;2022-12-07T07:27:36;2.70;;;0.77;;
67819;SDS011;54618;52.018;5.576;2022-12-07T07:30:02;3.05;;;1.05;;
67819;SDS011;54618;52.018;5.576;2022-12-07T07:32:28;1.20;;;0.68;;
67819;SDS011;54618;52.018;5.576;2022-12-07T07:34:54;1.52;;;0.70;;
67819;SDS011;54618;52.018;5.576;2022-12-07T07:37:19;1.67;;;0.65;;
67819;SDS011;54618;52.018;5.576;2022-12-07T07:39:45;2.33;;;0.70;;
67819;SDS011;54618;52.018;5.576;2022-12-07T07:42:11;2.25;;;0.70;;
67819;SDS011;54618;52.018;5.576;2022-12-07T07:44:36;2.40;;;0.60;;
67819;SDS011;54618;52.018;5.576;2022-12-07T07:47:02;1.95;;;0.70;;
67819;SDS011;54618;52.018;5.576;2022-12-07T07:49:28;2.80;;;0.70;;
67819;SDS011;54618;52.018;5.576;2022-12-07T07:51:54;2.05;;;0.60;;
67819;SDS011;54618;52.018;5.576;2022-12-07T07:54:19;1.67;;;0.60;;
67819;SDS011;54618;52.018;5.576;2022-12-07T07:56:45;1.77;;;0.60;;
67819;SDS011;54618;52.018;5.576;2022-12-07T07:59:10;2.85;;;0.70;;
67819;SDS011;54618;52.018;5.576;2022-12-07T08:01:36;3.70;;;0.77;;
67819;SDS011;54618;52.018;5.576;2022-12-07T08:04:01;2.00;;;0.77;;
67819;SDS011;54618;52.018;5.576;2022-12-07T08:06:27;2.45;;;0.70;;
67819;SDS011;54618;52.018;5.576;2022-12-07T08:08:52;2.17;;;0.60;;
67819;SDS011;54618;52.018;5.576;2022-12-07T08:11:18;2.38;;;0.75;;
67819;SDS011;54618;52.018;5.576;2022-12-07T08:13:45;2.05;;;0.80;;
67819;SDS011;54618;52.018;5.576;2022-12-07T08:16:11;2.70;;;0.93;;
67819;SDS011;54618;52.018;5.576;2022-12-07T08:18:37;1.75;;;0.60;;
67819;SDS011;54618;52.018;5.576;2022-12-07T08:21:04;3.63;;;0.73;;
67819;SDS011;54618;52.018;5.576;2022-12-07T08:23:31;1.48;;;0.60;;
67819;SDS011;54618;52.018;5.576;2022-12-07T08:26:01;1.83;;;0.60;;
67819;SDS011;54618;52.018;5.576;2022-12-07T08:28:27;2.92;;;0.85;;
67819;SDS011;54618;52.018;5.576;2022-12-07T08:30:58;2.30;;;0.60;;
67819;SDS011;54618;52.018;5.576;2022-12-07T08:33:28;2.15;;;0.70;;
67819;SDS011;54618;52.018;5.576;2022-12-07T08:35:54;2.75;;;0.77;;
67819;SDS011;54618;52.018;5.576;2022-12-07T08:38:20;2.65;;;0.73;;
67819;SDS011;54618;52.018;5.576;2022-12-07T08:40:53;2.28;;;0.73;;
67819;SDS011;54618;52.018;5.576;2022-12-07T08:43:19;2.53;;;0.80;;
67819;SDS011;54618;52.018;5.576;2022-12-07T08:45:45;2.63;;;0.82;;
67819;SDS011;54618;52.018;5.576;2022-12-07T08:48:12;2.08;;;0.80;;
67819;SDS011;54618;52.018;5.576;2022-12-07T08:50:39;2.58;;;1.00;;
67819;SDS011;54618;52.018;5.576;2022-12-07T08:53:05;3.20;;;0.70;;
67819;SDS011;54618;52.018;5.576;2022-12-07T08:55:31;3.08;;;1.02;;
67819;SDS011;54618;52.018;5.576;2022-12-07T08:57:58;3.05;;;1.00;;
67819;SDS011;54618;52.018;5.576;2022-12-07T09:00:25;2.85;;;0.80;;
67819;SDS011;54618;52.018;5.576;2022-12-07T09:02:52;2.17;;;0.70;;
67819;SDS011;54618;52.018;5.576;2022-12-07T09:05:18;2.67;;;0.77;;
67819;SDS011;54618;52.018;5.576;2022-12-07T09:07:45;1.80;;;0.75;;
67819;SDS011;54618;52.018;5.576;2022-12-07T09:10:15;1.60;;;0.60;;
67819;SDS011;54618;52.018;5.576;2022-12-07T09:12:40;3.22;;;0.93;;
67819;SDS011;54618;52.018;5.576;2022-12-07T09:15:06;6.53;;;1.30;;
67819;SDS011;54618;52.018;5.576;2022-12-07T09:17:33;4.75;;;1.35;;
67819;SDS011;54618;52.018;5.576;2022-12-07T09:19:59;7.25;;;1.67;;
67819;SDS011;54618;52.018;5.576;2022-12-07T09:22:28;4.97;;;1.33;;
67819;SDS011;54618;52.018;5.576;2022-12-07T09:24:55;4.43;;;1.33;;
67819;SDS011;54618;52.018;5.576;2022-12-07T09:27:21;6.72;;;1.30;;
67819;SDS011;54618;52.018;5.576;2022-12-07T09:29:47;4.35;;;1.27;;
67819;SDS011;54618;52.018;5.576;2022-12-07T09:32:12;4.40;;;1.83;;
67819;SDS011;54618;52.018;5.576;2022-12-07T09:34:38;4.07;;;1.10;;
67819;SDS011;54618;52.018;5.576;2022-12-07T09:37:03;4.05;;;1.20;;
67819;SDS011;54618;52.018;5.576;2022-12-07T09:39:29;5.22;;;1.35;;
67819;SDS011;54618;52.018;5.576;2022-12-07T09:41:56;3.78;;;1.20;;
67819;SDS011;54618;52.018;5.576;2022-12-07T09:44:24;5.00;;;1.30;;
67819;SDS011;54618;52.018;5.576;2022-12-07T09:46:51;4.60;;;1.33;;
67819;SDS011;54618;52.018;5.576;2022-12-07T09:49:19;2.53;;;1.20;;
67819;SDS011;54618;52.018;5.576;2022-12-07T09:51:46;4.50;;;1.33;;
67819;SDS011;54618;52.018;5.576;2022-12-07T09:54:13;4.93;;;1.30;;
67819;SDS011;54618;52.018;5.576;2022-12-07T09:56:41;3.08;;;1.23;;
67819;SDS011;54618;52.018;5.576;2022-12-07T09:59:09;2.80;;;1.00;;
67819;SDS011;54618;52.018;5.576;2022-12-07T10:01:40;4.10;;;1.20;;
67819;SDS011;54618;52.018;5.576;2022-12-07T10:04:10;3.28;;;1.10;;
67819;SDS011;54618;52.018;5.576;2022-12-07T10:06:41;2.92;;;1.05;;
67819;SDS011;54618;52.018;5.576;2022-12-07T10:09:13;3.17;;;1.10;;
67819;SDS011;54618;52.018;5.576;2022-12-07T10:14:37;3.13;;;1.10;;
67819;SDS011;54618;52.018;5.576;2022-12-07T10:17:26;4.68;;;1.20;;
67819;SDS011;54618;52.018;5.576;2022-12-07T10:20:11;2.83;;;0.95;;
67819;SDS011;54618;52.018;5.576;2022-12-07T10:22:53;3.80;;;1.17;;
67819;SDS011;54618;52.018;5.576;2022-12-07T10:25:19;3.25;;;0.90;;
67819;SDS011;54618;52.018;5.576;2022-12-07T10:27:57;4.97;;;1.10;;
67819;SDS011;54618;52.018;5.576;2022-12-07T10:30:31;3.67;;;0.93;;
67819;SDS011;54618;52.018;5.576;2022-12-07T10:32:58;4.20;;;1.20;;
67819;SDS011;54618;52.018;5.576;2022-12-07T10:35:28;3.88;;;1.00;;
67819;SDS011;54618;52.018;5.576;2022-12-07T10:37:55;3.13;;;1.08;;
67819;SDS011;54618;52.018;5.576;2022-12-07T10:40:25;2.00;;;1.00;;
67819;SDS011;54618;52.018;5.576;2022-12-07T10:43:36;3.60;;;1.17;;
67819;SDS011;54618;52.018;5.576;2022-12-07T10:45:41;6.80;;;1.23;;
67819;SDS011;54618;52.018;5.576;2022-12-07T10:48:32;3.00;;;0.90;;
67819;SDS011;54618;52.018;5.576;2022-12-07T10:51:17;3.28;;;0.90;;
67819;SDS011;54618;52.018;5.576;2022-12-07T10:59:50;5.07;;;1.20;;
67819;SDS011;54618;52.018;5.576;2022-12-07T11:05:24;3.80;;;1.10;;
67819;SDS011;54618;52.018;5.576;2022-12-07T11:08:13;4.38;;;0.90;;
67819;SDS011;54618;52.018;5.576;2022-12-07T11:19:05;2.83;;;1.00;;
67819;SDS011;54618;52.018;5.576;2022-12-07T11:21:48;2.85;;;0.80;;
67819;SDS011;54618;52.018;5.576;2022-12-07T11:24:20;3.00;;;0.93;;
67819;SDS011;54618;52.018;5.576;2022-12-07T11:38:37;3.35;;;1.00;;
67819;SDS011;54618;52.018;5.576;2022-12-07T11:41:15;3.20;;;1.00;;
67819;SDS011;54618;52.018;5.576;2022-12-07T11:43:52;13.60;;;2.35;;
67819;SDS011;54618;52.018;5.576;2022-12-07T11:46:18;6.97;;;2.20;;
67819;SDS011;54618;52.018;5.576;2022-12-07T11:48:50;4.97;;;1.60;;
67819;SDS011;54618;52.018;5.576;2022-12-07T11:51:37;7.22;;;2.10;;
67819;SDS011;54618;52.018;5.576;2022-12-07T11:54:26;5.03;;;1.67;;
67819;SDS011;54618;52.018;5.576;2022-12-07T11:56:53;5.32;;;1.88;;
67819;SDS011;54618;52.018;5.576;2022-12-07T11:59:29;6.28;;;1.67;;
67819;SDS011;54618;52.018;5.576;2022-12-07T12:02:11;6.53;;;1.90;;
67819;SDS011;54618;52.018;5.576;2022-12-07T12:04:54;3.22;;;1.67;;
67819;SDS011;54618;52.018;5.576;2022-12-07T12:07:33;4.30;;;1.70;;
67819;SDS011;54618;52.018;5.576;2022-12-07T12:10:02;5.88;;;1.63;;
67819;SDS011;54618;52.018;5.576;2022-12-07T12:18:21;4.90;;;1.50;;
67819;SDS011;54618;52.018;5.576;2022-12-07T12:21:04;4.78;;;1.52;;
67819;SDS011;54618;52.018;5.576;2022-12-07T12:23:41;4.13;;;1.48;;
67819;SDS011;54618;52.018;5.576;2022-12-07T12:26:18;4.00;;;1.52;;
67819;SDS011;54618;52.018;5.576;2022-12-07T12:28:57;4.00;;;1.40;;
67819;SDS011;54618;52.018;5.576;2022-12-07T12:33:56;4.50;;;1.42;;
67819;SDS011;54618;52.018;5.576;2022-12-07T12:36:43;4.13;;;1.25;;
67819;SDS011;54618;52.018;5.576;2022-12-07T12:46:56;2.83;;;1.20;;
67819;SDS011;54618;52.018;5.576;2022-12-07T12:51:50;3.33;;;1.38;;
67819;SDS011;54618;52.018;5.576;2022-12-07T12:54:23;5.88;;;1.50;;
67819;SDS011;54618;52.018;5.576;2022-12-07T12:57:08;3.40;;;1.25;;
67819;SDS011;54618;52.018;5.576;2022-12-07T13:02:20;5.07;;;1.30;;
67819;SDS011;54618;52.018;5.576;2022-12-07T13:18:27;2.97;;;1.10;;
67819;SDS011;54618;52.018;5.576;2022-12-07T13:21:00;3.40;;;1.02;;
67819;SDS011;54618;52.018;5.576;2022-12-07T13:23:30;3.28;;;1.05;;
67819;SDS011;54618;52.018;5.576;2022-12-07T13:31:51;2.92;;;0.90;;
67819;SDS011;54618;52.018;5.576;2022-12-07T13:34:28;5.15;;;1.10;;
67819;SDS011;54618;52.018;5.576;2022-12-07T13:37:02;2.50;;;0.90;;
67819;SDS011;54618;52.018;5.576;2022-12-07T13:39:50;3.13;;;1.10;;
67819;SDS011;54618;52.018;5.576;2022-12-07T13:42:26;3.08;;;0.95;;
67819;SDS011;54618;52.018;5.576;2022-12-07T13:44:56;2.65;;;0.93;;
67819;SDS011;54618;52.018;5.576;2022-12-07T13:47:36;3.10;;;0.85;;
67819;SDS011;54618;52.018;5.576;2022-12-07T13:50:21;3.55;;;0.90;;
67819;SDS011;54618;52.018;5.576;2022-12-07T13:52:49;3.33;;;0.88;;
67819;SDS011;54618;52.018;5.576;2022-12-07T13:55:16;3.38;;;0.90;;
67819;SDS011;54618;52.018;5.576;2022-12-07T13:57:42;3.55;;;0.90;;
67819;SDS011;54618;52.018;5.576;2022-12-07T14:00:16;2.63;;;1.08;;
67819;SDS011;54618;52.018;5.576;2022-12-07T14:03:04;2.90;;;0.90;;
67819;SDS011;54618;52.018;5.576;2022-12-07T14:06:03;4.45;;;0.98;;
67819;SDS011;54618;52.018;5.576;2022-12-07T14:08:39;3.05;;;0.80;;
67819;SDS011;54618;52.018;5.576;2022-12-07T14:11:05;2.45;;;0.82;;
67819;SDS011;54618;52.018;5.576;2022-12-07T14:13:44;2.67;;;0.80;;
67819;SDS011;54618;52.018;5.576;2022-12-07T14:16:23;2.90;;;0.80;;
67819;SDS011;54618;52.018;5.576;2022-12-07T14:18:56;2.33;;;0.90;;
67819;SDS011;54618;52.018;5.576;2022-12-07T14:21:24;3.30;;;0.90;;
67819;SDS011;54618;52.018;5.576;2022-12-07T14:26:37;3.05;;;0.85;;
67819;SDS011;54618;52.018;5.576;2022-12-07T14:29:22;1.95;;;0.60;;
67819;SDS011;54618;52.018;5.576;2022-12-07T14:31:51;1.80;;;0.70;;
67819;SDS011;54618;52.018;5.576;2022-12-07T14:34:19;2.70;;;0.80;;
67819;SDS011;54618;52.018;5.576;2022-12-07T14:36:45;2.45;;;0.80;;
67819;SDS011;54618;52.018;5.576;2022-12-07T14:39:11;2.28;;;0.90;;
67819;SDS011;54618;52.018;5.576;2022-12-07T14:41:36;2.78;;;1.00;;
67819;SDS011;54618;52.018;5.576;2022-12-07T14:44:21;2.90;;;0.85;;
67819;SDS011;54618;52.018;5.576;2022-12-07T14:46:48;2.33;;;0.88;;
67819;SDS011;54618;52.018;5.576;2022-12-07T14:49:14;4.10;;;0.90;;
67819;SDS011;54618;52.018;5.576;2022-12-07T14:51:40;2.92;;;0.80;;
67819;SDS011;54618;52.018;5.576;2022-12-07T14:54:11;2.42;;;0.80;;
67819;SDS011;54618;52.018;5.576;2022-12-07T14:56:41;2.38;;;0.88;;
67819;SDS011;54618;52.018;5.576;2022-12-07T14:59:08;2.72;;;0.73;;
67819;SDS011;54618;52.018;5.576;2022-12-07T15:01:35;3.42;;;0.85;;
67819;SDS011;54618;52.018;5.576;2022-12-07T15:04:01;2.72;;;0.70;;
67819;SDS011;54618;52.018;5.576;2022-12-07T15:06:26;2.83;;;0.88;;
67819;SDS011;54618;52.018;5.576;2022-12-07T15:08:52;3.40;;;0.73;;
67819;SDS011;54618;52.018;5.576;2022-12-07T15:11:17;2.05;;;0.75;;
67819;SDS011;54618;52.018;5.576;2022-12-07T15:13:43;1.70;;;0.70;;
67819;SDS011;54618;52.018;5.576;2022-12-07T15:16:28;2.90;;;0.93;;
67819;SDS011;54618;52.018;5.576;2022-12-07T15:18:53;3.40;;;0.80;;
67819;SDS011;54618;52.018;5.576;2022-12-07T15:21:19;3.33;;;0.98;;
67819;SDS011;54618;52.018;5.576;2022-12-07T15:23:46;3.55;;;0.98;;
67819;SDS011;54618;52.018;5.576;2022-12-07T15:26:11;3.85;;;0.80;;
67819;SDS011;54618;52.018;5.576;2022-12-07T15:28:38;4.55;;;0.90;;
67819;SDS011;54618;52.018;5.576;2022-12-07T15:31:12;4.63;;;1.13;;
67819;SDS011;54618;52.018;5.576;2022-12-07T15:33:42;5.43;;;1.00;;
67819;SDS011;54618;52.018;5.576;2022-12-07T15:36:08;4.30;;;0.90;;
67819;SDS011;54618;52.018;5.576;2022-12-07T15:38:43;4.15;;;1.25;;
67819;SDS011;54618;52.018;5.576;2022-12-07T15:41:09;3.65;;;0.90;;
67819;SDS011;54618;52.018;5.576;2022-12-07T15:43:36;4.55;;;0.85;;
67819;SDS011;54618;52.018;5.576;2022-12-07T15:46:20;3.25;;;0.68;;
67819;SDS011;54618;52.018;5.576;2022-12-07T15:48:45;3.35;;;0.90;;
67819;SDS011;54618;52.018;5.576;2022-12-07T15:51:11;2.42;;;0.80;;
67819;SDS011;54618;52.018;5.576;2022-12-07T15:53:37;2.60;;;1.05;;
67819;SDS011;54618;52.018;5.576;2022-12-07T15:56:05;4.40;;;0.90;;
67819;SDS011;54618;52.018;5.576;2022-12-07T15:58:32;2.20;;;0.75;;
67819;SDS011;54618;52.018;5.576;2022-12-07T16:00:58;2.75;;;1.08;;
67819;SDS011;54618;52.018;5.576;2022-12-07T16:03:23;3.92;;;0.90;;
67819;SDS011;54618;52.018;5.576;2022-12-07T16:05:49;3.55;;;0.90;;
67819;SDS011;54618;52.018;5.576;2022-12-07T16:08:18;3.03;;;0.90;;
67819;SDS011;54618;52.018;5.576;2022-12-07T16:10:44;2.97;;;0.80;;
67819;SDS011;54618;52.018;5.576;2022-12-07T16:13:10;1.90;;;0.90;;
67819;SDS011;54618;52.018;5.576;2022-12-07T16:15:42;2.53;;;0.75;;
67819;SDS011;54618;52.018;5.576;2022-12-07T16:18:08;2.80;;;0.70;;
67819;SDS011;54618;52.018;5.576;2022-12-07T16:20:34;3.28;;;0.80;;
67819;SDS011;54618;52.018;5.576;2022-12-07T16:23:00;3.05;;;0.95;;
67819;SDS011;54618;52.018;5.576;2022-12-07T16:25:25;2.58;;;0.73;;
67819;SDS011;54618;52.018;5.576;2022-12-07T16:27:51;2.85;;;0.80;;
67819;SDS011;54618;52.018;5.576;2022-12-07T16:30:17;2.28;;;0.80;;
67819;SDS011;54618;52.018;5.576;2022-12-07T16:32:43;2.63;;;0.82;;
67819;SDS011;54618;52.018;5.576;2022-12-07T16:35:09;1.70;;;0.70;;
67819;SDS011;54618;52.018;5.576;2022-12-07T16:37:35;3.70;;;0.93;;
67819;SDS011;54618;52.018;5.576;2022-12-07T16:40:01;2.53;;;0.80;;
67819;SDS011;54618;52.018;5.576;2022-12-07T16:42:26;2.42;;;0.70;;
67819;SDS011;54618;52.018;5.576;2022-12-07T16:44:57;3.80;;;0.90;;
67819;SDS011;54618;52.018;5.576;2022-12-07T16:47:22;2.30;;;0.75;;
67819;SDS011;54618;52.018;5.576;2022-12-07T16:49:48;3.47;;;0.80;;